Terminal Aerodrome Forecast
Issued by NWS

Home | Current Version | Previous Version | Text Only | Print | Product List | Glossary On
Versions: 1 2 3 4 5 6 7 8 9 10 11 12 13 14 15 16 17 18 19 20 21
000
FTUS42 KTBW 071742 AAA
TAFPIE
TAF AMD
KPIE 071742Z 0718/0818 VRB05KT P6SM FEW020
     FM072000 32007KT P6SM FEW020 SCT070
     FM080500 01005KT P6SM FEW010 SCT090
     FM081300 02006KT P6SM SCT045 BKN070=

USA.gov is the U.S. government's official web portal to all federal, state and local government web resources and services.